sensor_id;sensor_type;location;lat;lon;timestamp;temperature;humidity
2723;DHT22;1369;53.216;10.396;2022-10-16T00:01:46;13.70;99.90
2723;DHT22;1369;53.216;10.396;2022-10-16T00:04:13;13.70;99.90
2723;DHT22;1369;53.216;10.396;2022-10-16T00:06:39;13.70;99.90
2723;DHT22;1369;53.216;10.396;2022-10-16T00:09:05;13.60;99.90
2723;DHT22;1369;53.216;10.396;2022-10-16T00:11:33;13.60;99.90
2723;DHT22;1369;53.216;10.396;2022-10-16T00:14:01;13.50;99.90
2723;DHT22;1369;53.216;10.396;2022-10-16T00:16:31;13.50;99.90
2723;DHT22;1369;53.216;10.396;2022-10-16T00:18:56;13.50;99.90
2723;DHT22;1369;53.216;10.396;2022-10-16T00:21:24;13.50;99.90
2723;DHT22;1369;53.216;10.396;2022-10-16T00:23:52;13.50;99.90
2723;DHT22;1369;53.216;10.396;2022-10-16T00:26:18;13.50;99.90
2723;DHT22;1369;53.216;10.396;2022-10-16T00:28:49;13.50;99.90
2723;DHT22;1369;53.216;10.396;2022-10-16T00:31:16;13.60;99.90
2723;DHT22;1369;53.216;10.396;2022-10-16T00:33:42;13.50;99.90
2723;DHT22;1369;53.216;10.396;2022-10-16T00:36:11;13.50;99.90
2723;DHT22;1369;53.216;10.396;2022-10-16T00:38:37;13.50;99.90
2723;DHT22;1369;53.216;10.396;2022-10-16T00:41:03;13.50;99.90
2723;DHT22;1369;53.216;10.396;2022-10-16T00:43:33;13.60;99.90
2723;DHT22;1369;53.216;10.396;2022-10-16T00:46:00;13.50;99.90
2723;DHT22;1369;53.216;10.396;2022-10-16T00:48:27;13.50;99.90
2723;DHT22;1369;53.216;10.396;2022-10-16T00:50:53;13.40;99.90
2723;DHT22;1369;53.216;10.396;2022-10-16T00:53:19;13.40;99.90
2723;DHT22;1369;53.216;10.396;2022-10-16T00:55:44;13.40;99.90
2723;DHT22;1369;53.216;10.396;2022-10-16T00:58:11;13.30;99.90
2723;DHT22;1369;53.216;10.396;2022-10-16T01:00:36;13.30;99.90
2723;DHT22;1369;53.216;10.396;2022-10-16T01:03:23;13.30;99.90
2723;DHT22;1369;53.216;10.396;2022-10-16T01:05:58;13.30;99.90
2723;DHT22;1369;53.216;10.396;2022-10-16T01:08:34;13.20;99.90
2723;DHT22;1369;53.216;10.396;2022-10-16T01:11:11;13.20;99.90
2723;DHT22;1369;53.216;10.396;2022-10-16T01:13:42;13.10;99.90
2723;DHT22;1369;53.216;10.396;2022-10-16T01:16:39;13.10;99.90
2723;DHT22;1369;53.216;10.396;2022-10-16T01:19:41;13.10;99.90
2723;DHT22;1369;53.216;10.396;2022-10-16T01:22:09;13.10;99.90
2723;DHT22;1369;53.216;10.396;2022-10-16T01:24:39;13.00;99.90
2723;DHT22;1369;53.216;10.396;2022-10-16T01:27:25;13.00;99.90
2723;DHT22;1369;53.216;10.396;2022-10-16T01:29:56;12.90;99.90
2723;DHT22;1369;53.216;10.396;2022-10-16T01:32:33;12.90;99.90
2723;DHT22;1369;53.216;10.396;2022-10-16T01:35:16;12.90;99.90
2723;DHT22;1369;53.216;10.396;2022-10-16T01:37:54;12.90;99.90
2723;DHT22;1369;53.216;10.396;2022-10-16T01:40:24;12.80;99.90
2723;DHT22;1369;53.216;10.396;2022-10-16T01:43:17;12.80;99.90
2723;DHT22;1369;53.216;10.396;2022-10-16T01:45:42;12.80;99.90
2723;DHT22;1369;53.216;10.396;2022-10-16T01:48:12;12.90;99.90
2723;DHT22;1369;53.216;10.396;2022-10-16T01:50:40;12.80;99.90
2723;DHT22;1369;53.216;10.396;2022-10-16T01:53:09;12.80;99.90
2723;DHT22;1369;53.216;10.396;2022-10-16T01:55:39;12.80;99.90
2723;DHT22;1369;53.216;10.396;2022-10-16T01:58:08;12.80;99.90
2723;DHT22;1369;53.216;10.396;2022-10-16T02:00:37;12.80;99.90
2723;DHT22;1369;53.216;10.396;2022-10-16T02:03:04;12.70;99.90
2723;DHT22;1369;53.216;10.396;2022-10-16T02:05:54;12.60;99.90
2723;DHT22;1369;53.216;10.396;2022-10-16T02:08:18;12.60;99.90
2723;DHT22;1369;53.216;10.396;2022-10-16T02:10:44;12.60;99.90
2723;DHT22;1369;53.216;10.396;2022-10-16T02:13:13;12.60;99.90
2723;DHT22;1369;53.216;10.396;2022-10-16T02:15:41;12.60;99.90
2723;DHT22;1369;53.216;10.396;2022-10-16T02:18:07;12.60;99.90
2723;DHT22;1369;53.216;10.396;2022-10-16T02:20:40;12.60;99.90
2723;DHT22;1369;53.216;10.396;2022-10-16T02:23:11;12.60;99.90
2723;DHT22;1369;53.216;10.396;2022-10-16T02:25:40;12.60;99.90
2723;DHT22;1369;53.216;10.396;2022-10-16T02:28:11;12.60;99.90
2723;DHT22;1369;53.216;10.396;2022-10-16T02:30:39;12.60;99.90
2723;DHT22;1369;53.216;10.396;2022-10-16T02:33:10;12.60;99.90
2723;DHT22;1369;53.216;10.396;2022-10-16T02:35:38;12.60;99.90
2723;DHT22;1369;53.216;10.396;2022-10-16T02:38:06;12.60;99.90
2723;DHT22;1369;53.216;10.396;2022-10-16T02:40:33;12.60;99.90
2723;DHT22;1369;53.216;10.396;2022-10-16T02:42:59;12.60;99.90
2723;DHT22;1369;53.216;10.396;2022-10-16T02:45:24;12.60;99.90
2723;DHT22;1369;53.216;10.396;2022-10-16T02:47:50;12.60;99.90
2723;DHT22;1369;53.216;10.396;2022-10-16T02:50:16;12.60;99.90
2723;DHT22;1369;53.216;10.396;2022-10-16T02:52:42;12.60;99.90
2723;DHT22;1369;53.216;10.396;2022-10-16T02:55:07;12.60;99.90
2723;DHT22;1369;53.216;10.396;2022-10-16T02:57:33;12.50;99.90
2723;DHT22;1369;53.216;10.396;2022-10-16T02:59:58;12.60;99.90
2723;DHT22;1369;53.216;10.396;2022-10-16T03:02:24;12.60;99.90
2723;DHT22;1369;53.216;10.396;2022-10-16T03:04:50;12.50;99.90
2723;DHT22;1369;53.216;10.396;2022-10-16T03:07:15;12.50;99.90
2723;DHT22;1369;53.216;10.396;2022-10-16T03:09:41;12.50;99.90
2723;DHT22;1369;53.216;10.396;2022-10-16T03:12:07;12.60;99.90
2723;DHT22;1369;53.216;10.396;2022-10-16T03:14:32;12.60;99.90
2723;DHT22;1369;53.216;10.396;2022-10-16T03:16:58;12.60;99.90
2723;DHT22;1369;53.216;10.396;2022-10-16T03:19:23;12.60;99.90
2723;DHT22;1369;53.216;10.396;2022-10-16T03:21:49;12.60;99.90
2723;DHT22;1369;53.216;10.396;2022-10-16T03:24:15;12.60;99.90
2723;DHT22;1369;53.216;10.396;2022-10-16T03:26:40;12.60;99.90
2723;DHT22;1369;53.216;10.396;2022-10-16T03:29:06;12.60;99.90
2723;DHT22;1369;53.216;10.396;2022-10-16T03:31:32;12.60;99.90
2723;DHT22;1369;53.216;10.396;2022-10-16T03:33:57;12.60;99.90
2723;DHT22;1369;53.216;10.396;2022-10-16T03:36:23;12.60;99.90
2723;DHT22;1369;53.216;10.396;2022-10-16T03:38:48;12.60;99.90
2723;DHT22;1369;53.216;10.396;2022-10-16T03:41:14;12.60;99.90
2723;DHT22;1369;53.216;10.396;2022-10-16T03:43:40;12.60;99.90
2723;DHT22;1369;53.216;10.396;2022-10-16T03:46:05;12.50;99.90
2723;DHT22;1369;53.216;10.396;2022-10-16T03:48:31;12.50;99.90
2723;DHT22;1369;53.216;10.396;2022-10-16T03:50:57;12.50;99.90
2723;DHT22;1369;53.216;10.396;2022-10-16T03:53:23;12.50;99.90
2723;DHT22;1369;53.216;10.396;2022-10-16T03:55:48;12.50;99.90
2723;DHT22;1369;53.216;10.396;2022-10-16T03:58:14;12.50;99.90
2723;DHT22;1369;53.216;10.396;2022-10-16T04:00:41;12.50;99.90
2723;DHT22;1369;53.216;10.396;2022-10-16T04:03:07;12.50;99.90
2723;DHT22;1369;53.216;10.396;2022-10-16T04:05:33;12.50;99.90
2723;DHT22;1369;53.216;10.396;2022-10-16T04:07:58;12.40;99.90
2723;DHT22;1369;53.216;10.396;2022-10-16T04:10:24;12.40;99.90
2723;DHT22;1369;53.216;10.396;2022-10-16T04:12:49;12.30;99.90
2723;DHT22;1369;53.216;10.396;2022-10-16T04:15:15;12.30;99.90
2723;DHT22;1369;53.216;10.396;2022-10-16T04:17:40;12.20;99.90
2723;DHT22;1369;53.216;10.396;2022-10-16T04:20:06;12.20;99.90
2723;DHT22;1369;53.216;10.396;2022-10-16T04:22:32;12.10;99.90
2723;DHT22;1369;53.216;10.396;2022-10-16T04:24:57;12.10;99.90
2723;DHT22;1369;53.216;10.396;2022-10-16T04:27:23;12.00;99.90
2723;DHT22;1369;53.216;10.396;2022-10-16T04:29:48;12.00;99.90
2723;DHT22;1369;53.216;10.396;2022-10-16T04:32:14;11.90;99.90
2723;DHT22;1369;53.216;10.396;2022-10-16T04:34:39;11.90;99.90
2723;DHT22;1369;53.216;10.396;2022-10-16T04:37:05;11.90;99.90
2723;DHT22;1369;53.216;10.396;2022-10-16T04:39:31;11.90;99.90
2723;DHT22;1369;53.216;10.396;2022-10-16T04:41:56;11.90;99.90
2723;DHT22;1369;53.216;10.396;2022-10-16T04:44:22;11.90;99.90
2723;DHT22;1369;53.216;10.396;2022-10-16T04:46:49;11.90;99.90
2723;DHT22;1369;53.216;10.396;2022-10-16T04:49:15;11.90;99.90
2723;DHT22;1369;53.216;10.396;2022-10-16T04:51:40;12.00;99.90
2723;DHT22;1369;53.216;10.396;2022-10-16T04:54:06;12.00;99.90
2723;DHT22;1369;53.216;10.396;2022-10-16T04:56:31;12.10;99.90
2723;DHT22;1369;53.216;10.396;2022-10-16T04:58:57;12.10;99.90
2723;DHT22;1369;53.216;10.396;2022-10-16T05:01:23;12.10;99.90
2723;DHT22;1369;53.216;10.396;2022-10-16T05:03:48;12.20;99.90
2723;DHT22;1369;53.216;10.396;2022-10-16T05:06:14;12.10;99.90
2723;DHT22;1369;53.216;10.396;2022-10-16T05:08:39;12.10;99.90
2723;DHT22;1369;53.216;10.396;2022-10-16T05:11:05;12.10;99.90
2723;DHT22;1369;53.216;10.396;2022-10-16T05:13:30;12.00;99.90
2723;DHT22;1369;53.216;10.396;2022-10-16T05:15:56;12.10;99.90
2723;DHT22;1369;53.216;10.396;2022-10-16T05:18:22;12.10;99.90
2723;DHT22;1369;53.216;10.396;2022-10-16T05:20:47;12.00;99.90
2723;DHT22;1369;53.216;10.396;2022-10-16T05:23:13;12.10;99.90
2723;DHT22;1369;53.216;10.396;2022-10-16T05:25:38;12.10;99.90
2723;DHT22;1369;53.216;10.396;2022-10-16T05:28:04;12.10;99.90
2723;DHT22;1369;53.216;10.396;2022-10-16T05:30:29;12.10;99.90
2723;DHT22;1369;53.216;10.396;2022-10-16T05:32:55;12.10;99.90
2723;DHT22;1369;53.216;10.396;2022-10-16T05:35:21;12.20;99.90
2723;DHT22;1369;53.216;10.396;2022-10-16T05:37:47;12.30;99.90
2723;DHT22;1369;53.216;10.396;2022-10-16T05:40:13;12.20;99.90
2723;DHT22;1369;53.216;10.396;2022-10-16T05:42:39;12.20;99.90
2723;DHT22;1369;53.216;10.396;2022-10-16T05:45:12;12.30;99.90
2723;DHT22;1369;53.216;10.396;2022-10-16T05:47:37;12.20;99.90
2723;DHT22;1369;53.216;10.396;2022-10-16T05:50:03;12.20;99.90
2723;DHT22;1369;53.216;10.396;2022-10-16T05:52:29;12.20;99.90
2723;DHT22;1369;53.216;10.396;2022-10-16T05:54:55;12.20;99.90
2723;DHT22;1369;53.216;10.396;2022-10-16T05:57:20;12.30;99.90
2723;DHT22;1369;53.216;10.396;2022-10-16T05:59:46;12.20;99.90
2723;DHT22;1369;53.216;10.396;2022-10-16T06:02:13;12.30;99.90
2723;DHT22;1369;53.216;10.396;2022-10-16T06:04:38;12.30;99.90
2723;DHT22;1369;53.216;10.396;2022-10-16T06:07:04;12.30;99.90
2723;DHT22;1369;53.216;10.396;2022-10-16T06:09:29;12.30;99.90
2723;DHT22;1369;53.216;10.396;2022-10-16T06:11:55;12.40;99.90
2723;DHT22;1369;53.216;10.396;2022-10-16T06:14:20;12.30;99.90
2723;DHT22;1369;53.216;10.396;2022-10-16T06:16:46;12.30;99.90
2723;DHT22;1369;53.216;10.396;2022-10-16T06:19:11;12.30;99.90
2723;DHT22;1369;53.216;10.396;2022-10-16T06:21:37;12.20;99.90
2723;DHT22;1369;53.216;10.396;2022-10-16T06:24:02;12.20;99.90
2723;DHT22;1369;53.216;10.396;2022-10-16T06:26:30;12.20;99.90
2723;DHT22;1369;53.216;10.396;2022-10-16T06:28:57;12.20;99.90
2723;DHT22;1369;53.216;10.396;2022-10-16T06:31:23;12.20;99.90
2723;DHT22;1369;53.216;10.396;2022-10-16T06:33:53;12.20;99.90
2723;DHT22;1369;53.216;10.396;2022-10-16T06:36:19;12.20;99.90
2723;DHT22;1369;53.216;10.396;2022-10-16T06:38:44;12.20;99.90
2723;DHT22;1369;53.216;10.396;2022-10-16T06:41:15;12.20;99.90
2723;DHT22;1369;53.216;10.396;2022-10-16T06:43:41;12.30;99.90
2723;DHT22;1369;53.216;10.396;2022-10-16T06:46:09;12.20;99.90
2723;DHT22;1369;53.216;10.396;2022-10-16T06:48:35;12.20;99.90
2723;DHT22;1369;53.216;10.396;2022-10-16T06:51:08;12.30;99.90
2723;DHT22;1369;53.216;10.396;2022-10-16T06:53:36;12.20;99.90
2723;DHT22;1369;53.216;10.396;2022-10-16T06:56:28;12.30;99.90
2723;DHT22;1369;53.216;10.396;2022-10-16T06:58:55;12.30;99.90
2723;DHT22;1369;53.216;10.396;2022-10-16T07:01:23;12.30;99.90
2723;DHT22;1369;53.216;10.396;2022-10-16T07:03:49;12.40;99.90
2723;DHT22;1369;53.216;10.396;2022-10-16T07:06:17;12.40;99.90
2723;DHT22;1369;53.216;10.396;2022-10-16T07:08:45;12.40;99.90
2723;DHT22;1369;53.216;10.396;2022-10-16T07:11:13;12.40;99.90
2723;DHT22;1369;53.216;10.396;2022-10-16T07:13:40;12.40;99.90
2723;DHT22;1369;53.216;10.396;2022-10-16T07:16:11;12.40;99.90
2723;DHT22;1369;53.216;10.396;2022-10-16T07:18:37;12.40;99.90
2723;DHT22;1369;53.216;10.396;2022-10-16T07:21:11;12.40;99.90
2723;DHT22;1369;53.216;10.396;2022-10-16T07:23:38;12.40;99.90
2723;DHT22;1369;53.216;10.396;2022-10-16T07:26:04;12.50;99.90
2723;DHT22;1369;53.216;10.396;2022-10-16T07:28:31;12.60;99.90
2723;DHT22;1369;53.216;10.396;2022-10-16T07:31:10;12.70;99.90
2723;DHT22;1369;53.216;10.396;2022-10-16T07:33:37;12.80;99.90
2723;DHT22;1369;53.216;10.396;2022-10-16T07:36:04;12.90;99.90
2723;DHT22;1369;53.216;10.396;2022-10-16T07:38:29;13.00;99.90
2723;DHT22;1369;53.216;10.396;2022-10-16T07:40:59;13.10;99.90
2723;DHT22;1369;53.216;10.396;2022-10-16T07:43:26;13.20;99.90
2723;DHT22;1369;53.216;10.396;2022-10-16T07:45:51;13.30;99.90
2723;DHT22;1369;53.216;10.396;2022-10-16T07:48:17;13.30;99.90
2723;DHT22;1369;53.216;10.396;2022-10-16T07:50:44;13.50;99.90
2723;DHT22;1369;53.216;10.396;2022-10-16T07:53:10;13.60;99.90
2723;DHT22;1369;53.216;10.396;2022-10-16T07:55:35;13.70;99.90
2723;DHT22;1369;53.216;10.396;2022-10-16T07:58:01;13.90;99.90
2723;DHT22;1369;53.216;10.396;2022-10-16T08:00:26;14.10;99.90
2723;DHT22;1369;53.216;10.396;2022-10-16T08:02:52;14.20;99.90
2723;DHT22;1369;53.216;10.396;2022-10-16T08:05:17;14.40;99.90
2723;DHT22;1369;53.216;10.396;2022-10-16T08:07:47;14.60;99.90
2723;DHT22;1369;53.216;10.396;2022-10-16T08:10:18;14.80;99.90
2723;DHT22;1369;53.216;10.396;2022-10-16T08:12:44;15.00;99.90
2723;DHT22;1369;53.216;10.396;2022-10-16T08:15:09;15.20;99.90
2723;DHT22;1369;53.216;10.396;2022-10-16T08:17:35;15.50;99.90
2723;DHT22;1369;53.216;10.396;2022-10-16T08:20:01;15.80;99.90
2723;DHT22;1369;53.216;10.396;2022-10-16T08:22:27;16.10;99.90
2723;DHT22;1369;53.216;10.396;2022-10-16T08:24:53;16.30;99.90
2723;DHT22;1369;53.216;10.396;2022-10-16T08:27:18;16.50;99.90
2723;DHT22;1369;53.216;10.396;2022-10-16T08:29:44;16.70;99.90
2723;DHT22;1369;53.216;10.396;2022-10-16T08:32:09;16.60;99.90
2723;DHT22;1369;53.216;10.396;2022-10-16T08:34:35;16.50;99.90
2723;DHT22;1369;53.216;10.396;2022-10-16T08:37:00;16.40;99.90
2723;DHT22;1369;53.216;10.396;2022-10-16T08:39:26;16.20;99.90
2723;DHT22;1369;53.216;10.396;2022-10-16T08:42:36;16.20;99.90
2723;DHT22;1369;53.216;10.396;2022-10-16T08:45:08;16.20;99.90
2723;DHT22;1369;53.216;10.396;2022-10-16T08:47:49;16.20;99.90
2723;DHT22;1369;53.216;10.396;2022-10-16T08:50:25;16.30;99.90
2723;DHT22;1369;53.216;10.396;2022-10-16T08:52:53;16.40;99.90
2723;DHT22;1369;53.216;10.396;2022-10-16T08:55:29;16.50;99.90
2723;DHT22;1369;53.216;10.396;2022-10-16T08:57:55;16.60;99.90
2723;DHT22;1369;53.216;10.396;2022-10-16T09:00:21;16.80;99.90
2723;DHT22;1369;53.216;10.396;2022-10-16T09:02:52;17.00;99.90
2723;DHT22;1369;53.216;10.396;2022-10-16T09:05:46;17.20;99.90
2723;DHT22;1369;53.216;10.396;2022-10-16T09:08:39;17.50;99.90
2723;DHT22;1369;53.216;10.396;2022-10-16T09:19:48;19.60;99.90
2723;DHT22;1369;53.216;10.396;2022-10-16T09:22:16;20.00;99.90
2723;DHT22;1369;53.216;10.396;2022-10-16T09:24:43;20.20;99.90
2723;DHT22;1369;53.216;10.396;2022-10-16T09:27:11;20.40;99.90
2723;DHT22;1369;53.216;10.396;2022-10-16T09:29:37;20.40;99.90
2723;DHT22;1369;53.216;10.396;2022-10-16T09:32:22;20.40;99.90
2723;DHT22;1369;53.216;10.396;2022-10-16T09:34:50;20.50;99.90
2723;DHT22;1369;53.216;10.396;2022-10-16T09:37:19;20.50;99.90
2723;DHT22;1369;53.216;10.396;2022-10-16T09:39:49;20.60;99.90
2723;DHT22;1369;53.216;10.396;2022-10-16T09:42:20;20.60;99.90
2723;DHT22;1369;53.216;10.396;2022-10-16T09:44:49;20.60;99.90
2723;DHT22;1369;53.216;10.396;2022-10-16T09:47:18;20.60;99.90
2723;DHT22;1369;53.216;10.396;2022-10-16T09:49:59;20.50;99.90
2723;DHT22;1369;53.216;10.396;2022-10-16T09:52:28;20.60;99.90
2723;DHT22;1369;53.216;10.396;2022-10-16T09:55:09;20.50;99.90
2723;DHT22;1369;53.216;10.396;2022-10-16T09:57:47;20.50;99.90
2723;DHT22;1369;53.216;10.396;2022-10-16T10:00:16;20.50;99.90
2723;DHT22;1369;53.216;10.396;2022-10-16T10:02:43;20.30;99.90
2723;DHT22;1369;53.216;10.396;2022-10-16T10:05:24;20.20;99.90
2723;DHT22;1369;53.216;10.396;2022-10-16T10:08:01;20.10;99.90
2723;DHT22;1369;53.216;10.396;2022-10-16T10:10:32;20.10;99.90
2723;DHT22;1369;53.216;10.396;2022-10-16T10:12:59;20.00;99.90
2723;DHT22;1369;53.216;10.396;2022-10-16T10:15:25;19.90;99.90
2723;DHT22;1369;53.216;10.396;2022-10-16T10:17:57;19.90;99.90
2723;DHT22;1369;53.216;10.396;2022-10-16T10:20:26;19.80;99.90
2723;DHT22;1369;53.216;10.396;2022-10-16T10:22:53;19.70;99.90
2723;DHT22;1369;53.216;10.396;2022-10-16T10:36:26;19.70;99.90
2723;DHT22;1369;53.216;10.396;2022-10-16T10:44:37;19.70;99.90
2723;DHT22;1369;53.216;10.396;2022-10-16T10:53:31;19.80;99.90
2723;DHT22;1369;53.216;10.396;2022-10-16T10:56:21;19.90;99.90
2723;DHT22;1369;53.216;10.396;2022-10-16T10:59:06;19.90;99.90
2723;DHT22;1369;53.216;10.396;2022-10-16T11:01:41;19.90;99.90
2723;DHT22;1369;53.216;10.396;2022-10-16T11:07:04;19.90;99.90
2723;DHT22;1369;53.216;10.396;2022-10-16T11:09:37;19.80;99.90
2723;DHT22;1369;53.216;10.396;2022-10-16T11:12:22;19.80;99.90
2723;DHT22;1369;53.216;10.396;2022-10-16T11:15:01;19.80;99.90
2723;DHT22;1369;53.216;10.396;2022-10-16T11:20:42;19.90;99.90
2723;DHT22;1369;53.216;10.396;2022-10-16T11:23:30;19.90;99.90
2723;DHT22;1369;53.216;10.396;2022-10-16T11:26:00;19.90;99.90
2723;DHT22;1369;53.216;10.396;2022-10-16T11:28:39;20.00;99.90
2723;DHT22;1369;53.216;10.396;2022-10-16T11:31:28;20.10;99.90
2723;DHT22;1369;53.216;10.396;2022-10-16T11:36:36;20.20;99.90
2723;DHT22;1369;53.216;10.396;2022-10-16T11:39:19;20.30;99.90
2723;DHT22;1369;53.216;10.396;2022-10-16T11:41:51;20.20;99.90
2723;DHT22;1369;53.216;10.396;2022-10-16T11:47:19;20.20;99.90
2723;DHT22;1369;53.216;10.396;2022-10-16T11:49:51;20.20;99.90
2723;DHT22;1369;53.216;10.396;2022-10-16T11:52:37;20.30;99.90
2723;DHT22;1369;53.216;10.396;2022-10-16T12:01:21;20.40;99.90
2723;DHT22;1369;53.216;10.396;2022-10-16T12:07:14;20.10;99.90
2723;DHT22;1369;53.216;10.396;2022-10-16T12:09:43;20.00;99.90
2723;DHT22;1369;53.216;10.396;2022-10-16T12:12:47;20.00;99.90
2723;DHT22;1369;53.216;10.396;2022-10-16T12:15:29;19.90;99.90
2723;DHT22;1369;53.216;10.396;2022-10-16T12:17:55;19.90;99.90
2723;DHT22;1369;53.216;10.396;2022-10-16T12:22:54;20.20;99.90
2723;DHT22;1369;53.216;10.396;2022-10-16T12:25:35;20.20;99.90
2723;DHT22;1369;53.216;10.396;2022-10-16T12:28:05;20.20;99.90
2723;DHT22;1369;53.216;10.396;2022-10-16T12:30:36;20.10;99.90
2723;DHT22;1369;53.216;10.396;2022-10-16T12:33:05;20.00;99.90
2723;DHT22;1369;53.216;10.396;2022-10-16T12:35:35;19.90;99.90
2723;DHT22;1369;53.216;10.396;2022-10-16T12:38:19;19.80;99.90
2723;DHT22;1369;53.216;10.396;2022-10-16T12:41:01;19.90;99.90
2723;DHT22;1369;53.216;10.396;2022-10-16T12:43:47;19.80;99.90
2723;DHT22;1369;53.216;10.396;2022-10-16T12:48:40;19.60;99.90
2723;DHT22;1369;53.216;10.396;2022-10-16T12:54:11;19.60;99.90
2723;DHT22;1369;53.216;10.396;2022-10-16T12:59:28;19.80;99.90
2723;DHT22;1369;53.216;10.396;2022-10-16T13:21:48;20.10;99.90
2723;DHT22;1369;53.216;10.396;2022-10-16T13:24:24;20.00;99.90
2723;DHT22;1369;53.216;10.396;2022-10-16T13:27:15;19.80;99.90
2723;DHT22;1369;53.216;10.396;2022-10-16T13:29:41;19.60;99.90
2723;DHT22;1369;53.216;10.396;2022-10-16T13:32:10;19.50;99.90
2723;DHT22;1369;53.216;10.396;2022-10-16T13:34:47;19.40;99.90
2723;DHT22;1369;53.216;10.396;2022-10-16T13:37:19;19.30;99.90
2723;DHT22;1369;53.216;10.396;2022-10-16T13:39:45;19.30;99.90
2723;DHT22;1369;53.216;10.396;2022-10-16T13:42:18;19.20;99.90
2723;DHT22;1369;53.216;10.396;2022-10-16T13:44:49;19.20;99.90
2723;DHT22;1369;53.216;10.396;2022-10-16T13:47:20;19.20;99.90
2723;DHT22;1369;53.216;10.396;2022-10-16T13:49:46;19.30;99.90
2723;DHT22;1369;53.216;10.396;2022-10-16T13:52:20;19.30;99.90
2723;DHT22;1369;53.216;10.396;2022-10-16T13:54:46;19.30;99.90
2723;DHT22;1369;53.216;10.396;2022-10-16T13:57:16;19.30;99.90
2723;DHT22;1369;53.216;10.396;2022-10-16T13:59:42;19.30;99.90
2723;DHT22;1369;53.216;10.396;2022-10-16T14:02:20;19.40;99.90
2723;DHT22;1369;53.216;10.396;2022-10-16T14:04:47;19.40;99.90
2723;DHT22;1369;53.216;10.396;2022-10-16T14:07:19;19.30;99.90
2723;DHT22;1369;53.216;10.396;2022-10-16T14:09:49;19.20;99.90
2723;DHT22;1369;53.216;10.396;2022-10-16T14:12:15;19.30;99.90
2723;DHT22;1369;53.216;10.396;2022-10-16T14:14:46;19.30;99.90
2723;DHT22;1369;53.216;10.396;2022-10-16T14:17:19;19.30;99.90
2723;DHT22;1369;53.216;10.396;2022-10-16T14:19:47;19.30;99.90
2723;DHT22;1369;53.216;10.396;2022-10-16T14:22:33;19.30;99.90
2723;DHT22;1369;53.216;10.396;2022-10-16T14:25:00;19.20;99.90
2723;DHT22;1369;53.216;10.396;2022-10-16T14:27:35;19.10;99.90
2723;DHT22;1369;53.216;10.396;2022-10-16T14:30:11;18.90;99.90
2723;DHT22;1369;53.216;10.396;2022-10-16T14:32:41;18.80;99.90
2723;DHT22;1369;53.216;10.396;2022-10-16T14:35:26;18.60;99.90
2723;DHT22;1369;53.216;10.396;2022-10-16T14:37:54;18.50;99.90
2723;DHT22;1369;53.216;10.396;2022-10-16T14:40:23;18.50;99.90
2723;DHT22;1369;53.216;10.396;2022-10-16T14:42:49;18.40;99.90
2723;DHT22;1369;53.216;10.396;2022-10-16T14:45:20;18.40;99.90
2723;DHT22;1369;53.216;10.396;2022-10-16T14:47:55;18.40;99.90
2723;DHT22;1369;53.216;10.396;2022-10-16T14:50:21;18.40;99.90
2723;DHT22;1369;53.216;10.396;2022-10-16T14:52:47;18.40;99.90
2723;DHT22;1369;53.216;10.396;2022-10-16T14:55:12;18.40;99.90
2723;DHT22;1369;53.216;10.396;2022-10-16T14:57:40;18.30;99.90
2723;DHT22;1369;53.216;10.396;2022-10-16T15:00:20;18.30;99.90
2723;DHT22;1369;53.216;10.396;2022-10-16T15:02:47;18.20;99.90
2723;DHT22;1369;53.216;10.396;2022-10-16T15:05:25;18.20;99.90
2723;DHT22;1369;53.216;10.396;2022-10-16T15:07:53;18.20;99.90
2723;DHT22;1369;53.216;10.396;2022-10-16T15:10:20;18.20;99.90
2723;DHT22;1369;53.216;10.396;2022-10-16T15:12:46;18.20;99.90
2723;DHT22;1369;53.216;10.396;2022-10-16T15:17:54;18.20;99.90
2723;DHT22;1369;53.216;10.396;2022-10-16T15:20:26;18.10;99.90
2723;DHT22;1369;53.216;10.396;2022-10-16T15:22:51;18.10;99.90
2723;DHT22;1369;53.216;10.396;2022-10-16T15:27:48;17.90;99.90
2723;DHT22;1369;53.216;10.396;2022-10-16T15:30:13;17.80;99.90
2723;DHT22;1369;53.216;10.396;2022-10-16T15:32:39;17.70;99.90
2723;DHT22;1369;53.216;10.396;2022-10-16T15:35:07;17.60;99.90
2723;DHT22;1369;53.216;10.396;2022-10-16T15:37:33;17.60;99.90
2723;DHT22;1369;53.216;10.396;2022-10-16T15:39:58;17.50;99.90
2723;DHT22;1369;53.216;10.396;2022-10-16T15:42:24;17.40;99.90
2723;DHT22;1369;53.216;10.396;2022-10-16T15:44:50;17.30;99.90
2723;DHT22;1369;53.216;10.396;2022-10-16T15:47:15;17.20;99.90
2723;DHT22;1369;53.216;10.396;2022-10-16T15:49:41;17.10;99.90
2723;DHT22;1369;53.216;10.396;2022-10-16T15:52:06;17.10;99.90
2723;DHT22;1369;53.216;10.396;2022-10-16T15:54:32;17.00;99.90
2723;DHT22;1369;53.216;10.396;2022-10-16T15:56:57;16.90;99.90
2723;DHT22;1369;53.216;10.396;2022-10-16T15:59:23;16.70;99.90
2723;DHT22;1369;53.216;10.396;2022-10-16T16:01:48;16.60;99.90
2723;DHT22;1369;53.216;10.396;2022-10-16T16:04:14;16.50;99.90
2723;DHT22;1369;53.216;10.396;2022-10-16T16:06:40;16.30;99.90
2723;DHT22;1369;53.216;10.396;2022-10-16T16:09:13;16.20;99.90
2723;DHT22;1369;53.216;10.396;2022-10-16T16:11:39;16.10;99.90
2723;DHT22;1369;53.216;10.396;2022-10-16T16:14:11;15.90;99.90
2723;DHT22;1369;53.216;10.396;2022-10-16T16:16:38;15.80;99.90
2723;DHT22;1369;53.216;10.396;2022-10-16T16:19:05;15.60;99.90
2723;DHT22;1369;53.216;10.396;2022-10-16T16:21:31;15.40;99.90
2723;DHT22;1369;53.216;10.396;2022-10-16T16:23:57;15.30;99.90
2723;DHT22;1369;53.216;10.396;2022-10-16T16:26:28;15.10;99.90
2723;DHT22;1369;53.216;10.396;2022-10-16T16:28:57;15.00;99.90
2723;DHT22;1369;53.216;10.396;2022-10-16T16:31:27;14.90;99.90
2723;DHT22;1369;53.216;10.396;2022-10-16T16:33:54;14.80;99.90
2723;DHT22;1369;53.216;10.396;2022-10-16T16:36:20;14.60;99.90
2723;DHT22;1369;53.216;10.396;2022-10-16T16:38:46;14.50;99.90
2723;DHT22;1369;53.216;10.396;2022-10-16T16:41:19;14.40;99.90
2723;DHT22;1369;53.216;10.396;2022-10-16T16:43:45;14.30;99.90
2723;DHT22;1369;53.216;10.396;2022-10-16T16:46:13;14.20;99.90
2723;DHT22;1369;53.216;10.396;2022-10-16T16:48:39;14.10;99.90
2723;DHT22;1369;53.216;10.396;2022-10-16T16:51:13;14.00;99.90
2723;DHT22;1369;53.216;10.396;2022-10-16T16:53:43;13.90;99.90
2723;DHT22;1369;53.216;10.396;2022-10-16T16:56:10;13.80;99.90
2723;DHT22;1369;53.216;10.396;2022-10-16T16:58:35;13.60;99.90
2723;DHT22;1369;53.216;10.396;2022-10-16T17:01:01;13.60;99.90
2723;DHT22;1369;53.216;10.396;2022-10-16T17:03:32;13.40;99.90
2723;DHT22;1369;53.216;10.396;2022-10-16T17:05:59;13.40;99.90
2723;DHT22;1369;53.216;10.396;2022-10-16T17:08:25;13.30;99.90
2723;DHT22;1369;53.216;10.396;2022-10-16T17:10:51;13.30;99.90
2723;DHT22;1369;53.216;10.396;2022-10-16T17:13:24;13.20;99.90
2723;DHT22;1369;53.216;10.396;2022-10-16T17:15:50;13.10;99.90
2723;DHT22;1369;53.216;10.396;2022-10-16T17:18:16;13.10;99.90
2723;DHT22;1369;53.216;10.396;2022-10-16T17:20:42;13.00;99.90
2723;DHT22;1369;53.216;10.396;2022-10-16T17:23:08;13.00;99.90
2723;DHT22;1369;53.216;10.396;2022-10-16T17:25:41;12.90;99.90
2723;DHT22;1369;53.216;10.396;2022-10-16T17:28:08;12.90;99.90